sensor_id;sensor_type;location;lat;lon;timestamp;temperature;humidity
35607;DHT22;21729;58.392;15.656;2022-09-09T00:00:55;6.60;24.30
35607;DHT22;21729;58.392;15.656;2022-09-09T00:03:27;6.60;27.80
35607;DHT22;21729;58.392;15.656;2022-09-09T00:06:04;6.60;60.90
35607;DHT22;21729;58.392;15.656;2022-09-09T00:08:42;6.60;78.40
35607;DHT22;21729;58.392;15.656;2022-09-09T00:11:14;6.60;57.90
35607;DHT22;21729;58.392;15.656;2022-09-09T00:13:47;6.60;56.20
35607;DHT22;21729;58.392;15.656;2022-09-09T00:16:19;6.60;56.90
35607;DHT22;21729;58.392;15.656;2022-09-09T00:18:55;6.80;72.60
35607;DHT22;21729;58.392;15.656;2022-09-09T00:21:30;6.90;73.30
35607;DHT22;21729;58.392;15.656;2022-09-09T00:24:00;7.10;30.10
35607;DHT22;21729;58.392;15.656;2022-09-09T00:26:33;7.30;12.00
35607;DHT22;21729;58.392;15.656;2022-09-09T00:29:09;7.40;1.00
35607;DHT22;21729;58.392;15.656;2022-09-09T00:31:40;7.50;1.00
35607;DHT22;21729;58.392;15.656;2022-09-09T00:34:14;7.50;1.00
35607;DHT22;21729;58.392;15.656;2022-09-09T00:36:45;7.50;1.00
35607;DHT22;21729;58.392;15.656;2022-09-09T00:39:23;7.30;1.00
35607;DHT22;21729;58.392;15.656;2022-09-09T00:42:05;7.20;1.00
35607;DHT22;21729;58.392;15.656;2022-09-09T00:44:38;7.10;1.00
35607;DHT22;21729;58.392;15.656;2022-09-09T00:47:16;7.10;1.00
35607;DHT22;21729;58.392;15.656;2022-09-09T00:49:59;7.10;1.00
35607;DHT22;21729;58.392;15.656;2022-09-09T00:52:37;7.10;1.30
35607;DHT22;21729;58.392;15.656;2022-09-09T00:55:15;7.20;18.60
35607;DHT22;21729;58.392;15.656;2022-09-09T00:57:45;7.30;27.80
35607;DHT22;21729;58.392;15.656;2022-09-09T01:00:22;7.30;25.80
35607;DHT22;21729;58.392;15.656;2022-09-09T01:02:57;7.30;27.30
35607;DHT22;21729;58.392;15.656;2022-09-09T01:05:34;7.30;19.90
35607;DHT22;21729;58.392;15.656;2022-09-09T01:08:11;7.30;4.30
35607;DHT22;21729;58.392;15.656;2022-09-09T01:10:48;7.40;18.10
35607;DHT22;21729;58.392;15.656;2022-09-09T01:13:22;7.60;11.20
35607;DHT22;21729;58.392;15.656;2022-09-09T01:15:51;7.70;1.00
35607;DHT22;21729;58.392;15.656;2022-09-09T01:18:22;7.80;1.00
35607;DHT22;21729;58.392;15.656;2022-09-09T01:20:57;7.80;1.00
35607;DHT22;21729;58.392;15.656;2022-09-09T01:23:44;7.80;1.00
35607;DHT22;21729;58.392;15.656;2022-09-09T01:26:28;7.70;1.00
35607;DHT22;21729;58.392;15.656;2022-09-09T01:28:57;7.60;1.00
35607;DHT22;21729;58.392;15.656;2022-09-09T01:31:28;7.50;1.00
35607;DHT22;21729;58.392;15.656;2022-09-09T01:33:57;7.50;1.00
35607;DHT22;21729;58.392;15.656;2022-09-09T01:36:34;7.30;1.00
35607;DHT22;21729;58.392;15.656;2022-09-09T01:39:03;7.30;1.00
35607;DHT22;21729;58.392;15.656;2022-09-09T01:41:32;7.40;3.30
35607;DHT22;21729;58.392;15.656;2022-09-09T01:43:59;7.40;10.60
35607;DHT22;21729;58.392;15.656;2022-09-09T01:46:27;7.50;36.20
35607;DHT22;21729;58.392;15.656;2022-09-09T01:48:56;7.60;52.80
35607;DHT22;21729;58.392;15.656;2022-09-09T01:51:24;7.70;36.90
35607;DHT22;21729;58.392;15.656;2022-09-09T01:53:51;7.70;4.60
35607;DHT22;21729;58.392;15.656;2022-09-09T01:56:35;7.80;1.00
35607;DHT22;21729;58.392;15.656;2022-09-09T01:59:17;7.80;1.00
35607;DHT22;21729;58.392;15.656;2022-09-09T02:01:53;7.90;1.00
35607;DHT22;21729;58.392;15.656;2022-09-09T02:04:34;8.00;1.00
35607;DHT22;21729;58.392;15.656;2022-09-09T02:07:02;8.00;1.00
35607;DHT22;21729;58.392;15.656;2022-09-09T02:09:31;8.10;1.00
35607;DHT22;21729;58.392;15.656;2022-09-09T02:12:04;8.10;1.00
35607;DHT22;21729;58.392;15.656;2022-09-09T02:14:37;8.20;1.00
35607;DHT22;21729;58.392;15.656;2022-09-09T02:17:09;8.20;1.00
35607;DHT22;21729;58.392;15.656;2022-09-09T02:19:41;8.30;1.00
35607;DHT22;21729;58.392;15.656;2022-09-09T02:22:09;8.20;1.00
35607;DHT22;21729;58.392;15.656;2022-09-09T02:24:38;8.20;1.00
35607;DHT22;21729;58.392;15.656;2022-09-09T02:27:09;8.30;1.00
35607;DHT22;21729;58.392;15.656;2022-09-09T02:29:39;8.40;1.00
35607;DHT22;21729;58.392;15.656;2022-09-09T02:32:11;8.40;1.00
35607;DHT22;21729;58.392;15.656;2022-09-09T02:34:43;8.50;1.00
35607;DHT22;21729;58.392;15.656;2022-09-09T02:37:12;8.60;1.00
35607;DHT22;21729;58.392;15.656;2022-09-09T02:39:41;8.70;1.00
35607;DHT22;21729;58.392;15.656;2022-09-09T02:42:10;8.70;1.00
35607;DHT22;21729;58.392;15.656;2022-09-09T02:44:40;8.80;1.00
35607;DHT22;21729;58.392;15.656;2022-09-09T02:47:20;8.90;1.00
35607;DHT22;21729;58.392;15.656;2022-09-09T02:49:58;8.90;1.00
35607;DHT22;21729;58.392;15.656;2022-09-09T02:52:33;9.10;99.90
35607;DHT22;21729;58.392;15.656;2022-09-09T02:55:09;9.20;99.90
35607;DHT22;21729;58.392;15.656;2022-09-09T02:57:41;9.20;99.90
35607;DHT22;21729;58.392;15.656;2022-09-09T03:00:12;9.10;1.00
35607;DHT22;21729;58.392;15.656;2022-09-09T03:02:39;9.10;1.00
35607;DHT22;21729;58.392;15.656;2022-09-09T03:05:08;9.10;1.00
35607;DHT22;21729;58.392;15.656;2022-09-09T03:07:35;9.10;1.00
35607;DHT22;21729;58.392;15.656;2022-09-09T03:10:02;9.10;1.00
35607;DHT22;21729;58.392;15.656;2022-09-09T03:12:29;9.10;1.00
35607;DHT22;21729;58.392;15.656;2022-09-09T03:15:00;9.10;1.00
35607;DHT22;21729;58.392;15.656;2022-09-09T03:17:27;9.00;1.00
35607;DHT22;21729;58.392;15.656;2022-09-09T03:19:54;9.00;1.00
35607;DHT22;21729;58.392;15.656;2022-09-09T03:22:23;8.90;1.00
35607;DHT22;21729;58.392;15.656;2022-09-09T03:24:51;8.80;1.00
35607;DHT22;21729;58.392;15.656;2022-09-09T03:27:18;8.60;1.00
35607;DHT22;21729;58.392;15.656;2022-09-09T03:29:46;8.70;1.00
35607;DHT22;21729;58.392;15.656;2022-09-09T03:32:18;8.60;1.00
35607;DHT22;21729;58.392;15.656;2022-09-09T03:34:48;8.50;1.00
35607;DHT22;21729;58.392;15.656;2022-09-09T03:37:16;8.50;1.00
35607;DHT22;21729;58.392;15.656;2022-09-09T03:39:43;8.60;1.00
35607;DHT22;21729;58.392;15.656;2022-09-09T03:42:12;8.70;1.00
35607;DHT22;21729;58.392;15.656;2022-09-09T03:44:39;8.70;1.00
35607;DHT22;21729;58.392;15.656;2022-09-09T03:47:07;8.70;1.00
35607;DHT22;21729;58.392;15.656;2022-09-09T03:49:36;8.60;1.00
35607;DHT22;21729;58.392;15.656;2022-09-09T03:52:03;8.60;1.00
35607;DHT22;21729;58.392;15.656;2022-09-09T03:54:30;8.50;1.00
35607;DHT22;21729;58.392;15.656;2022-09-09T03:56:57;8.40;1.00
35607;DHT22;21729;58.392;15.656;2022-09-09T03:59:24;8.40;1.00
35607;DHT22;21729;58.392;15.656;2022-09-09T04:01:52;8.40;1.00
35607;DHT22;21729;58.392;15.656;2022-09-09T04:04:19;8.30;1.00
35607;DHT22;21729;58.392;15.656;2022-09-09T04:06:48;8.40;1.00
35607;DHT22;21729;58.392;15.656;2022-09-09T04:09:16;8.40;1.00
35607;DHT22;21729;58.392;15.656;2022-09-09T04:11:43;8.40;1.00
35607;DHT22;21729;58.392;15.656;2022-09-09T04:14:11;8.40;1.00
35607;DHT22;21729;58.392;15.656;2022-09-09T04:16:38;8.40;1.00
35607;DHT22;21729;58.392;15.656;2022-09-09T04:19:08;8.50;1.00
35607;DHT22;21729;58.392;15.656;2022-09-09T04:21:38;8.60;1.00
35607;DHT22;21729;58.392;15.656;2022-09-09T04:24:08;8.50;1.00
35607;DHT22;21729;58.392;15.656;2022-09-09T04:26:36;8.50;1.00
35607;DHT22;21729;58.392;15.656;2022-09-09T04:29:04;8.40;1.00
35607;DHT22;21729;58.392;15.656;2022-09-09T04:31:33;8.40;1.00
35607;DHT22;21729;58.392;15.656;2022-09-09T04:34:00;8.50;1.00
35607;DHT22;21729;58.392;15.656;2022-09-09T04:36:31;8.60;1.00
35607;DHT22;21729;58.392;15.656;2022-09-09T04:38:58;8.60;1.00
35607;DHT22;21729;58.392;15.656;2022-09-09T04:41:28;8.70;1.00
35607;DHT22;21729;58.392;15.656;2022-09-09T04:44:02;8.70;1.00
35607;DHT22;21729;58.392;15.656;2022-09-09T04:46:29;8.80;1.00
35607;DHT22;21729;58.392;15.656;2022-09-09T04:48:56;8.80;1.00
35607;DHT22;21729;58.392;15.656;2022-09-09T04:51:23;8.70;1.00
35607;DHT22;21729;58.392;15.656;2022-09-09T04:53:51;8.80;1.00
35607;DHT22;21729;58.392;15.656;2022-09-09T04:56:19;8.90;99.90
35607;DHT22;21729;58.392;15.656;2022-09-09T04:58:48;8.90;1.00
35607;DHT22;21729;58.392;15.656;2022-09-09T05:01:16;8.80;1.00
35607;DHT22;21729;58.392;15.656;2022-09-09T05:03:44;9.00;1.00
35607;DHT22;21729;58.392;15.656;2022-09-09T05:06:13;9.10;1.00
35607;DHT22;21729;58.392;15.656;2022-09-09T05:08:42;9.10;1.40
35607;DHT22;21729;58.392;15.656;2022-09-09T05:11:14;9.00;1.00
35607;DHT22;21729;58.392;15.656;2022-09-09T05:13:42;9.00;1.00
35607;DHT22;21729;58.392;15.656;2022-09-09T05:16:11;9.00;1.00
35607;DHT22;21729;58.392;15.656;2022-09-09T05:18:38;9.10;1.00
35607;DHT22;21729;58.392;15.656;2022-09-09T05:21:06;9.00;1.00
35607;DHT22;21729;58.392;15.656;2022-09-09T05:23:33;9.20;1.00
35607;DHT22;21729;58.392;15.656;2022-09-09T05:26:01;9.10;1.00
35607;DHT22;21729;58.392;15.656;2022-09-09T05:28:28;9.20;1.00
35607;DHT22;21729;58.392;15.656;2022-09-09T05:30:57;9.20;1.00
35607;DHT22;21729;58.392;15.656;2022-09-09T05:33:25;9.20;1.00
35607;DHT22;21729;58.392;15.656;2022-09-09T05:35:57;9.40;99.90
35607;DHT22;21729;58.392;15.656;2022-09-09T05:38:24;9.50;99.90
35607;DHT22;21729;58.392;15.656;2022-09-09T05:40:52;9.50;99.90
35607;DHT22;21729;58.392;15.656;2022-09-09T05:43:20;9.70;99.90
35607;DHT22;21729;58.392;15.656;2022-09-09T05:45:47;9.60;99.90
35607;DHT22;21729;58.392;15.656;2022-09-09T05:48:14;9.70;99.90
35607;DHT22;21729;58.392;15.656;2022-09-09T05:50:43;9.80;99.90
35607;DHT22;21729;58.392;15.656;2022-09-09T05:53:11;9.90;99.90
35607;DHT22;21729;58.392;15.656;2022-09-09T05:55:38;9.90;99.90
35607;DHT22;21729;58.392;15.656;2022-09-09T05:58:05;9.90;99.90
35607;DHT22;21729;58.392;15.656;2022-09-09T06:00:32;10.10;99.90
35607;DHT22;21729;58.392;15.656;2022-09-09T06:02:59;10.30;99.90
35607;DHT22;21729;58.392;15.656;2022-09-09T06:05:26;10.60;99.90
35607;DHT22;21729;58.392;15.656;2022-09-09T06:07:55;10.70;99.90
35607;DHT22;21729;58.392;15.656;2022-09-09T06:10:23;10.90;99.90
35607;DHT22;21729;58.392;15.656;2022-09-09T06:12:52;11.00;99.90
35607;DHT22;21729;58.392;15.656;2022-09-09T06:15:20;11.30;99.90
35607;DHT22;21729;58.392;15.656;2022-09-09T06:17:47;11.40;99.90
35607;DHT22;21729;58.392;15.656;2022-09-09T06:20:20;11.60;99.90
35607;DHT22;21729;58.392;15.656;2022-09-09T06:22:47;11.80;37.00
35607;DHT22;21729;58.392;15.656;2022-09-09T06:25:16;12.10;1.00
35607;DHT22;21729;58.392;15.656;2022-09-09T06:27:48;12.40;1.00
35607;DHT22;21729;58.392;15.656;2022-09-09T06:30:16;12.70;1.00
35607;DHT22;21729;58.392;15.656;2022-09-09T06:32:44;12.90;1.00
35607;DHT22;21729;58.392;15.656;2022-09-09T06:35:11;13.10;1.00
35607;DHT22;21729;58.392;15.656;2022-09-09T06:37:39;13.30;1.00
35607;DHT22;21729;58.392;15.656;2022-09-09T06:40:07;13.40;1.00
35607;DHT22;21729;58.392;15.656;2022-09-09T06:42:36;13.70;1.00
35607;DHT22;21729;58.392;15.656;2022-09-09T06:45:06;14.10;1.00
35607;DHT22;21729;58.392;15.656;2022-09-09T06:47:33;15.40;99.90
35607;DHT22;21729;58.392;15.656;2022-09-09T06:50:00;18.40;1.00
35607;DHT22;21729;58.392;15.656;2022-09-09T06:52:28;20.20;1.00
35607;DHT22;21729;58.392;15.656;2022-09-09T06:54:55;21.00;99.90
35607;DHT22;21729;58.392;15.656;2022-09-09T06:57:24;21.80;99.90
35607;DHT22;21729;58.392;15.656;2022-09-09T06:59:52;21.00;99.90
35607;DHT22;21729;58.392;15.656;2022-09-09T07:02:19;20.40;99.90
35607;DHT22;21729;58.392;15.656;2022-09-09T07:04:47;20.60;99.90
35607;DHT22;21729;58.392;15.656;2022-09-09T07:07:16;19.90;99.90
35607;DHT22;21729;58.392;15.656;2022-09-09T07:09:43;20.40;99.90
35607;DHT22;21729;58.392;15.656;2022-09-09T07:12:12;18.40;99.90
35607;DHT22;21729;58.392;15.656;2022-09-09T07:14:39;16.50;1.00
35607;DHT22;21729;58.392;15.656;2022-09-09T07:17:08;15.80;1.00
35607;DHT22;21729;58.392;15.656;2022-09-09T07:19:35;16.90;1.00
35607;DHT22;21729;58.392;15.656;2022-09-09T07:22:02;15.80;1.00
35607;DHT22;21729;58.392;15.656;2022-09-09T07:24:29;18.10;1.00
35607;DHT22;21729;58.392;15.656;2022-09-09T07:26:57;18.70;1.00
35607;DHT22;21729;58.392;15.656;2022-09-09T07:29:25;17.60;99.90
35607;DHT22;21729;58.392;15.656;2022-09-09T07:31:53;17.30;1.00
35607;DHT22;21729;58.392;15.656;2022-09-09T07:34:22;16.40;1.00
35607;DHT22;21729;58.392;15.656;2022-09-09T07:36:49;18.60;1.00
35607;DHT22;21729;58.392;15.656;2022-09-09T07:39:16;19.20;1.00
35607;DHT22;21729;58.392;15.656;2022-09-09T07:41:44;22.00;99.90
35607;DHT22;21729;58.392;15.656;2022-09-09T07:44:13;21.70;99.90
35607;DHT22;21729;58.392;15.656;2022-09-09T07:46:41;22.50;99.90
35607;DHT22;21729;58.392;15.656;2022-09-09T07:49:11;23.60;99.90
35607;DHT22;21729;58.392;15.656;2022-09-09T07:51:41;23.40;99.90
35607;DHT22;21729;58.392;15.656;2022-09-09T07:54:10;23.70;99.90
35607;DHT22;21729;58.392;15.656;2022-09-09T07:56:37;22.20;99.90
35607;DHT22;21729;58.392;15.656;2022-09-09T07:59:05;23.10;99.90
35607;DHT22;21729;58.392;15.656;2022-09-09T08:01:35;23.10;99.90
35607;DHT22;21729;58.392;15.656;2022-09-09T08:04:09;23.10;99.90
35607;DHT22;21729;58.392;15.656;2022-09-09T08:06:44;22.00;99.90
35607;DHT22;21729;58.392;15.656;2022-09-09T08:09:13;22.10;99.90
35607;DHT22;21729;58.392;15.656;2022-09-09T08:11:41;22.60;99.90
35607;DHT22;21729;58.392;15.656;2022-09-09T08:14:09;22.10;99.90
35607;DHT22;21729;58.392;15.656;2022-09-09T08:16:38;23.00;99.90
35607;DHT22;21729;58.392;15.656;2022-09-09T08:19:06;23.90;99.90
35607;DHT22;21729;58.392;15.656;2022-09-09T08:21:35;23.90;99.90
35607;DHT22;21729;58.392;15.656;2022-09-09T08:24:05;24.60;99.90
35607;DHT22;21729;58.392;15.656;2022-09-09T08:26:34;25.70;99.90
35607;DHT22;21729;58.392;15.656;2022-09-09T08:29:03;24.70;99.90
35607;DHT22;21729;58.392;15.656;2022-09-09T08:31:31;24.70;99.90
35607;DHT22;21729;58.392;15.656;2022-09-09T08:34:00;23.00;99.90
35607;DHT22;21729;58.392;15.656;2022-09-09T08:36:30;22.60;99.90
35607;DHT22;21729;58.392;15.656;2022-09-09T08:38:59;21.40;99.90
35607;DHT22;21729;58.392;15.656;2022-09-09T08:42:00;21.30;99.90
35607;DHT22;21729;58.392;15.656;2022-09-09T08:44:41;19.70;99.90
35607;DHT22;21729;58.392;15.656;2022-09-09T08:47:18;22.00;99.90
35607;DHT22;21729;58.392;15.656;2022-09-09T08:50:02;21.60;99.90
35607;DHT22;21729;58.392;15.656;2022-09-09T08:52:38;22.30;99.90
35607;DHT22;21729;58.392;15.656;2022-09-09T08:55:21;22.20;99.90
35607;DHT22;21729;58.392;15.656;2022-09-09T08:57:53;23.40;99.90
35607;DHT22;21729;58.392;15.656;2022-09-09T09:00:21;24.00;99.90
35607;DHT22;21729;58.392;15.656;2022-09-09T09:02:57;23.60;99.90
35607;DHT22;21729;58.392;15.656;2022-09-09T09:05:30;22.00;99.90
35607;DHT22;21729;58.392;15.656;2022-09-09T09:08:03;23.00;99.90
35607;DHT22;21729;58.392;15.656;2022-09-09T09:10:42;23.30;99.90
35607;DHT22;21729;58.392;15.656;2022-09-09T09:13:17;23.80;99.90
35607;DHT22;21729;58.392;15.656;2022-09-09T09:15:48;24.40;99.90
35607;DHT22;21729;58.392;15.656;2022-09-09T09:18:17;24.00;99.90
35607;DHT22;21729;58.392;15.656;2022-09-09T09:20:50;24.40;99.90
35607;DHT22;21729;58.392;15.656;2022-09-09T09:23:29;25.20;99.90
35607;DHT22;21729;58.392;15.656;2022-09-09T09:26:01;24.10;99.90
35607;DHT22;21729;58.392;15.656;2022-09-09T09:28:32;24.20;99.90
35607;DHT22;21729;58.392;15.656;2022-09-09T09:31:03;24.30;99.90
35607;DHT22;21729;58.392;15.656;2022-09-09T09:33:35;24.20;99.90
35607;DHT22;21729;58.392;15.656;2022-09-09T09:36:06;25.00;99.90
35607;DHT22;21729;58.392;15.656;2022-09-09T09:38:35;24.70;99.90
35607;DHT22;21729;58.392;15.656;2022-09-09T09:41:03;24.20;99.90
35607;DHT22;21729;58.392;15.656;2022-09-09T09:43:34;24.60;99.90
35607;DHT22;21729;58.392;15.656;2022-09-09T09:46:04;25.30;99.90
35607;DHT22;21729;58.392;15.656;2022-09-09T09:48:31;22.90;99.90
35607;DHT22;21729;58.392;15.656;2022-09-09T09:51:01;22.20;99.90
35607;DHT22;21729;58.392;15.656;2022-09-09T09:53:31;23.40;99.90
35607;DHT22;21729;58.392;15.656;2022-09-09T09:56:00;23.70;99.90
35607;DHT22;21729;58.392;15.656;2022-09-09T09:58:32;21.70;99.90
35607;DHT22;21729;58.392;15.656;2022-09-09T10:01:00;23.20;99.90
35607;DHT22;21729;58.392;15.656;2022-09-09T10:03:29;22.30;99.90
35607;DHT22;21729;58.392;15.656;2022-09-09T10:05:57;21.50;99.90
35607;DHT22;21729;58.392;15.656;2022-09-09T10:08:26;20.50;99.90
35607;DHT22;21729;58.392;15.656;2022-09-09T10:13:51;19.20;99.90
35607;DHT22;21729;58.392;15.656;2022-09-09T10:16:29;18.90;99.90
35607;DHT22;21729;58.392;15.656;2022-09-09T10:19:04;18.70;99.90
35607;DHT22;21729;58.392;15.656;2022-09-09T10:21:47;18.90;99.90
35607;DHT22;21729;58.392;15.656;2022-09-09T10:27:21;19.00;99.90
35607;DHT22;21729;58.392;15.656;2022-09-09T10:30:14;19.20;99.90
35607;DHT22;21729;58.392;15.656;2022-09-09T10:32:48;19.20;99.90
35607;DHT22;21729;58.392;15.656;2022-09-09T10:35:26;19.00;99.90
35607;DHT22;21729;58.392;15.656;2022-09-09T10:38:17;18.30;99.90
35607;DHT22;21729;58.392;15.656;2022-09-09T10:44:14;18.20;99.90
35607;DHT22;21729;58.392;15.656;2022-09-09T10:47:09;18.30;99.90
35607;DHT22;21729;58.392;15.656;2022-09-09T10:49:55;17.90;99.90
35607;DHT22;21729;58.392;15.656;2022-09-09T10:52:30;18.40;99.90
35607;DHT22;21729;58.392;15.656;2022-09-09T10:55:02;18.30;99.90
35607;DHT22;21729;58.392;15.656;2022-09-09T10:57:38;18.60;99.90
35607;DHT22;21729;58.392;15.656;2022-09-09T11:00:14;18.50;99.90
35607;DHT22;21729;58.392;15.656;2022-09-09T11:02:43;19.00;99.90
35607;DHT22;21729;58.392;15.656;2022-09-09T11:05:16;19.50;99.90
35607;DHT22;21729;58.392;15.656;2022-09-09T11:07:48;19.70;99.90
35607;DHT22;21729;58.392;15.656;2022-09-09T11:10:22;19.20;99.90
35607;DHT22;21729;58.392;15.656;2022-09-09T11:12:54;19.90;99.90
35607;DHT22;21729;58.392;15.656;2022-09-09T11:15:28;19.90;99.90
35607;DHT22;21729;58.392;15.656;2022-09-09T11:18:01;18.70;99.90
35607;DHT22;21729;58.392;15.656;2022-09-09T11:20:31;19.10;99.90
35607;DHT22;21729;58.392;15.656;2022-09-09T11:23:02;19.00;99.90
35607;DHT22;21729;58.392;15.656;2022-09-09T11:25:34;19.20;99.90
35607;DHT22;21729;58.392;15.656;2022-09-09T11:28:25;18.90;99.90
35607;DHT22;21729;58.392;15.656;2022-09-09T11:31:06;18.90;99.90
35607;DHT22;21729;58.392;15.656;2022-09-09T11:34:01;18.80;99.90
35607;DHT22;21729;58.392;15.656;2022-09-09T11:36:52;18.60;99.90
35607;DHT22;21729;58.392;15.656;2022-09-09T11:39:44;18.30;99.90
35607;DHT22;21729;58.392;15.656;2022-09-09T11:42:18;18.00;99.90
35607;DHT22;21729;58.392;15.656;2022-09-09T11:44:45;18.10;1.00
35607;DHT22;21729;58.392;15.656;2022-09-09T11:47:20;18.10;1.00
35607;DHT22;21729;58.392;15.656;2022-09-09T11:49:51;18.10;1.00
35607;DHT22;21729;58.392;15.656;2022-09-09T11:52:24;18.00;1.00
35607;DHT22;21729;58.392;15.656;2022-09-09T11:54:55;17.80;1.00
35607;DHT22;21729;58.392;15.656;2022-09-09T11:57:26;17.80;1.00
35607;DHT22;21729;58.392;15.656;2022-09-09T11:59:56;17.60;1.00
35607;DHT22;21729;58.392;15.656;2022-09-09T12:02:25;17.70;1.00
35607;DHT22;21729;58.392;15.656;2022-09-09T12:05:00;18.10;1.00
35607;DHT22;21729;58.392;15.656;2022-09-09T12:07:34;18.00;1.00
35607;DHT22;21729;58.392;15.656;2022-09-09T12:10:17;18.10;1.00
35607;DHT22;21729;58.392;15.656;2022-09-09T12:12:46;18.20;1.00
35607;DHT22;21729;58.392;15.656;2022-09-09T12:15:25;18.10;1.00
35607;DHT22;21729;58.392;15.656;2022-09-09T12:17:56;18.20;1.00
35607;DHT22;21729;58.392;15.656;2022-09-09T12:20:31;18.20;1.00
35607;DHT22;21729;58.392;15.656;2022-09-09T12:23:30;18.30;1.00
35607;DHT22;21729;58.392;15.656;2022-09-09T12:26:07;18.20;1.00
35607;DHT22;21729;58.392;15.656;2022-09-09T12:28:47;18.10;1.00
35607;DHT22;21729;58.392;15.656;2022-09-09T12:31:21;18.20;1.00
35607;DHT22;21729;58.392;15.656;2022-09-09T12:33:50;18.40;1.00
35607;DHT22;21729;58.392;15.656;2022-09-09T12:36:21;18.40;1.00
35607;DHT22;21729;58.392;15.656;2022-09-09T12:38:50;18.30;1.00
35607;DHT22;21729;58.392;15.656;2022-09-09T12:41:20;18.10;1.00
35607;DHT22;21729;58.392;15.656;2022-09-09T12:43:48;18.00;1.00
35607;DHT22;21729;58.392;15.656;2022-09-09T12:46:23;17.60;1.00
35607;DHT22;21729;58.392;15.656;2022-09-09T12:48:53;17.50;1.00
35607;DHT22;21729;58.392;15.656;2022-09-09T12:51:26;17.60;1.00
35607;DHT22;21729;58.392;15.656;2022-09-09T12:53:55;17.40;1.00
35607;DHT22;21729;58.392;15.656;2022-09-09T12:56:24;17.50;1.00
35607;DHT22;21729;58.392;15.656;2022-09-09T12:58:54;17.50;1.00
35607;DHT22;21729;58.392;15.656;2022-09-09T13:01:24;17.50;1.00
35607;DHT22;21729;58.392;15.656;2022-09-09T13:03:52;17.60;1.00
35607;DHT22;21729;58.392;15.656;2022-09-09T13:06:23;17.60;1.00
35607;DHT22;21729;58.392;15.656;2022-09-09T13:08:50;17.40;1.00
35607;DHT22;21729;58.392;15.656;2022-09-09T13:11:21;17.90;1.00
35607;DHT22;21729;58.392;15.656;2022-09-09T13:13:52;17.90;1.00
35607;DHT22;21729;58.392;15.656;2022-09-09T13:16:22;17.50;1.00
35607;DHT22;21729;58.392;15.656;2022-09-09T13:18:49;17.30;1.00
35607;DHT22;21729;58.392;15.656;2022-09-09T13:21:19;17.20;1.00
35607;DHT22;21729;58.392;15.656;2022-09-09T13:23:59;17.20;1.00
35607;DHT22;21729;58.392;15.656;2022-09-09T13:26:29;17.10;1.00
35607;DHT22;21729;58.392;15.656;2022-09-09T13:29:09;17.00;1.00
35607;DHT22;21729;58.392;15.656;2022-09-09T13:31:43;17.10;1.00
35607;DHT22;21729;58.392;15.656;2022-09-09T13:34:12;17.10;1.00
35607;DHT22;21729;58.392;15.656;2022-09-09T13:36:40;17.40;1.00
35607;DHT22;21729;58.392;15.656;2022-09-09T13:39:16;17.50;1.00
35607;DHT22;21729;58.392;15.656;2022-09-09T13:41:45;17.40;1.00
35607;DHT22;21729;58.392;15.656;2022-09-09T13:44:19;17.20;1.00
35607;DHT22;21729;58.392;15.656;2022-09-09T13:47:00;17.50;1.00
35607;DHT22;21729;58.392;15.656;2022-09-09T13:49:29;17.60;1.00
35607;DHT22;21729;58.392;15.656;2022-09-09T13:52:04;17.70;1.00
35607;DHT22;21729;58.392;15.656;2022-09-09T13:54:36;17.80;1.00
35607;DHT22;21729;58.392;15.656;2022-09-09T13:57:04;17.90;1.00
35607;DHT22;21729;58.392;15.656;2022-09-09T13:59:31;17.90;1.00
35607;DHT22;21729;58.392;15.656;2022-09-09T14:01:58;18.00;1.00
35607;DHT22;21729;58.392;15.656;2022-09-09T14:04:27;18.20;1.00
35607;DHT22;21729;58.392;15.656;2022-09-09T14:06:55;18.00;1.00
35607;DHT22;21729;58.392;15.656;2022-09-09T14:09:22;17.80;1.00
35607;DHT22;21729;58.392;15.656;2022-09-09T14:11:51;17.80;1.00
35607;DHT22;21729;58.392;15.656;2022-09-09T14:14:18;17.50;1.00
35607;DHT22;21729;58.392;15.656;2022-09-09T14:16:45;17.40;1.00
35607;DHT22;21729;58.392;15.656;2022-09-09T14:19:13;17.10;1.00
35607;DHT22;21729;58.392;15.656;2022-09-09T14:21:40;17.00;1.00
35607;DHT22;21729;58.392;15.656;2022-09-09T14:24:07;17.00;1.00
35607;DHT22;21729;58.392;15.656;2022-09-09T14:26:34;16.90;1.00
35607;DHT22;21729;58.392;15.656;2022-09-09T14:29:02;16.90;1.00
35607;DHT22;21729;58.392;15.656;2022-09-09T14:31:29;17.00;1.00
35607;DHT22;21729;58.392;15.656;2022-09-09T14:33:56;17.00;1.00
35607;DHT22;21729;58.392;15.656;2022-09-09T14:36:24;17.10;1.00
35607;DHT22;21729;58.392;15.656;2022-09-09T14:38:51;16.80;1.00
35607;DHT22;21729;58.392;15.656;2022-09-09T14:41:19;16.80;1.00
35607;DHT22;21729;58.392;15.656;2022-09-09T14:43:48;16.90;1.00
35607;DHT22;21729;58.392;15.656;2022-09-09T14:46:19;16.80;1.00
35607;DHT22;21729;58.392;15.656;2022-09-09T14:48:47;16.80;1.00
35607;DHT22;21729;58.392;15.656;2022-09-09T14:51:17;16.70;1.00
35607;DHT22;21729;58.392;15.656;2022-09-09T14:53:45;16.60;14.20
35607;DHT22;21729;58.392;15.656;2022-09-09T14:56:16;16.50;47.70
35607;DHT22;21729;58.392;15.656;2022-09-09T14:58:43;16.50;31.20
35607;DHT22;21729;58.392;15.656;2022-09-09T15:01:12;16.40;33.30
35607;DHT22;21729;58.392;15.656;2022-09-09T15:03:43;16.30;99.90
35607;DHT22;21729;58.392;15.656;2022-09-09T15:06:12;16.20;83.30
35607;DHT22;21729;58.392;15.656;2022-09-09T15:08:41;16.20;99.90
35607;DHT22;21729;58.392;15.656;2022-09-09T15:11:10;16.00;99.90
35607;DHT22;21729;58.392;15.656;2022-09-09T15:13:43;16.00;99.90
35607;DHT22;21729;58.392;15.656;2022-09-09T15:16:12;15.90;99.90
35607;DHT22;21729;58.392;15.656;2022-09-09T15:18:41;15.90;99.90
35607;DHT22;21729;58.392;15.656;2022-09-09T15:21:11;15.80;99.90
35607;DHT22;21729;58.392;15.656;2022-09-09T15:23:39;15.80;99.90
35607;DHT22;21729;58.392;15.656;2022-09-09T15:26:06;15.80;99.90
35607;DHT22;21729;58.392;15.656;2022-09-09T15:28:34;15.80;99.90
35607;DHT22;21729;58.392;15.656;2022-09-09T15:31:06;15.80;99.90
35607;DHT22;21729;58.392;15.656;2022-09-09T15:33:33;15.80;99.90
35607;DHT22;21729;58.392;15.656;2022-09-09T15:36:14;15.80;99.90
35607;DHT22;21729;58.392;15.656;2022-09-09T15:38:41;15.80;99.90
35607;DHT22;21729;58.392;15.656;2022-09-09T15:41:09;15.70;99.90
35607;DHT22;21729;58.392;15.656;2022-09-09T15:43:36;15.60;99.90
35607;DHT22;21729;58.392;15.656;2022-09-09T15:46:29;15.70;99.90
35607;DHT22;21729;58.392;15.656;2022-09-09T15:49:02;15.60;99.90
35607;DHT22;21729;58.392;15.656;2022-09-09T15:51:32;15.60;99.90
35607;DHT22;21729;58.392;15.656;2022-09-09T15:53:59;15.50;99.90
35607;DHT22;21729;58.392;15.656;2022-09-09T15:56:28;15.50;99.90
35607;DHT22;21729;58.392;15.656;2022-09-09T15:58:57;15.40;99.90
35607;DHT22;21729;58.392;15.656;2022-09-09T16:01:25;15.40;99.90
35607;DHT22;21729;58.392;15.656;2022-09-09T16:03:52;15.30;99.90